EPWR/WRO METAR and TAF weather

Enter ICAO airport designator
Station Type Date Time Source
EPWR METAR 2019/04/19 23:00 UTC NOAA

EPWR 192300Z VRB01KT CAVOK 07/01 Q1031


Station Type Date Time Source
EPWR Decoded METAR 2019/04/19 23:00 UTC NOAA

Wroclaw Ii, Poland (EPWR) 51-06N 016-53E 121M
Apr 19, 2019 - 07:00 PM EDT / 2019.04.19 2300 UTC
Wind: Variable at 1 MPH (1 KT):0
Visibility: greater than 7 mile(s):0
Temperature: 44 F (7 C)
Dew Point: 33 F (1 C)
Relative Humidity: 65%
Pressure (altimeter): 30.45 in. Hg (1031 hPa)
ob: EPWR 192300Z VRB01KT CAVOK 07/01 Q1031
cycle: 23

Station Type Date Time Source
EPWR TAF 2019/04/19 21:40 UTC NOAA

TAF EPWR 192030Z 1921/2021 VRB02KT CAVOK
BECMG 2009/2012 36010KT

Example: see airport list